Flight Track Log - Related Links

Times and Time Zones

All times are in EDT time to prevent confusion due to time zone crossing. See the N6711L flight status page for this flight to view local times or setup timezone preferences in your user account.

Time Position Orientation Groundspeed Altitude Reporting Facility
EDT Latitude Longitude Course Direction KTS MPH feet Rate Location/Type
Thu 03:23:19 PM 24.6786 -81.7656 17° North 141 162 4,700  Level Miami Center
Thu 03:24:22 PM 24.7169 -81.7547 14° North 143 165 6,000 1,152 Climbing Miami Center
Thu 03:25:24 PM 24.7556 -81.7447 13° North 142 163 7,100 532 Climbing Miami Center
Thu 03:26:00 PM 24.8041 -81.7115 13° North  Level FlightAware Approximate
Thu 03:26:26 PM 24.8022 -81.7306 15° North 164 189 7,100  Level Miami Center
Thu 03:27:00 PM 24.8459 -81.7010 13° North  Level FlightAware Approximate
Thu 03:27:28 PM 24.8517 -81.7164 15° North 178 205 7,100  Level Miami Center
Thu 03:28:30 PM 24.9011 -81.7014 15° North 180 207 7,000 -48 Descending Miami Center
Thu 03:29:32 PM 24.9608 -81.6825 16° North 181 208 7,000  Level Miami Center
Thu 03:30:34 PM 25.0100 -81.6669 16° North 182 209 7,000  Level Miami Center
Thu 03:31:36 PM 25.0603 -81.6517 15° North 183 211 7,000  Level Miami Center
Thu 03:32:38 PM 25.1097 -81.6350 17° North 183 211 7,000 48 Level Miami Center
Thu 03:33:41 PM 25.1597 -81.6192 16° North 185 213 7,100 48 Climbing Miami Center
Thu 03:34:43 PM 25.2094 -81.6031 16° North 185 213 7,100  Level Miami Center
Thu 03:35:45 PM 25.2689 -81.5847 16° North 185 213 7,100  Level Miami Center
Thu 03:36:47 PM 25.3192 -81.5775 North 183 211 7,100 48 Level Miami Center
Thu 03:37:49 PM 25.3683 -81.5928 344° North 183 211 7,200 -339 Climbing Miami Center
Thu 03:38:51 PM 25.4194 -81.6031 350° North 183 211 6,400 -726 Descending Miami Center
Thu 03:39:53 PM 25.4758 -81.6161 348° North 199 229 5,700 -581 Descending Miami Center
Thu 03:40:55 PM 25.5289 -81.6292 347° North 199 229 5,200 -581 Descending Miami Center
Thu 03:41:57 PM 25.5922 -81.6428 349° North 198 228 4,500 -581 Descending Miami Center
Thu 03:42:59 PM 25.6450 -81.6564 347° North 197 227 4,000 -240 Descending Miami Center
Thu 03:44:02 PM 25.6964 -81.6678 349° North 173 199 4,000  Level Miami Center
Thu 03:45:04 PM 25.7428 -81.6789 348° North 170 196 4,000  Level Miami Center
Thu 03:46:06 PM 25.7947 -81.6669 12° North 176 203 4,000  Level Miami Center
Thu 03:47:08 PM 25.8425 -81.6550 13° North 176 203 4,000  Level Miami Center
Thu 03:48:10 PM 25.8939 -81.6425 12° North 177 204 4,000 -194 Level Miami Center
Thu 03:49:12 PM 25.9433 -81.6311 12° North 180 207 3,600 -484 Descending Miami Center
Thu 03:50:14 PM 26.0017 -81.6167 13° North 199 229 3,000 -290 Descending Miami Center
Thu 03:51:16 PM 26.0489 -81.6050 13° North 182 209 3,000  Level Miami Center
Thu 03:52:18 PM 26.1008 -81.5933 11° North 181 208 3,000  Level Miami Center
Thu 03:53:21 PM 26.1525 -81.5817 11° North 180 207 3,000  Level Miami Center
Thu 03:54:23 PM 26.2006 -81.5700 12° North 179 206 3,000 -532 Level Miami Center
Thu 03:55:25 PM 26.2469 -81.5831 346° North 179 206 1,900 -435 Descending Miami Center
Thu 03:56:27 PM 26.2733 -81.6131 314° West 142 163 2,100 97 Climbing Miami Center
Thu 03:57:29 PM 26.2714 -81.6500 267° West 128 147 2,100  Level Miami Center
Thu 03:58:31 PM 26.2483 -81.6728 222° Southwest 114 131 2,100 -145 Level Miami Center
Thu 03:59:33 PM 26.2247 -81.6961 222° Southwest 109 125 1,800 -435 Descending Miami Center
Thu 04:00:35 PM 26.2044 -81.7197 226° Southwest 109 125 1,200 -581 Descending Miami Center
Thu 04:01:37 PM 26.1806 -81.7456 224° Southwest 109 125 600 -435 Descending Miami Center
Thu 04:02:39 PM 26.1617 -81.7664 225° Southwest 109 125 300 -290 Descending Miami Center

Login

Don't have an account? Register now (free) for customized features, flight alerts, and more!